createdAt,value
2018-06-29T00:01:09.248Z,100379.00
2018-06-29T00:06:12.463Z,100377.00
2018-06-29T00:11:16.500Z,100374.00
2018-06-29T00:16:19.667Z,100378.00
2018-06-29T00:21:22.644Z,100371.00
2018-06-29T00:26:26.018Z,100366.00
2018-06-29T00:31:28.750Z,100373.00
2018-06-29T00:36:31.889Z,100371.00
2018-06-29T00:41:34.945Z,100363.00
2018-06-29T00:46:38.132Z,100366.00
2018-06-29T00:51:41.308Z,100366.00
2018-06-29T00:56:44.377Z,100362.00
2018-06-29T01:01:47.580Z,100366.00
2018-06-29T01:06:50.572Z,100372.00
2018-06-29T01:11:53.577Z,100378.00
2018-06-29T01:16:56.598Z,100375.00
2018-06-29T01:21:59.613Z,100381.00
2018-06-29T01:27:02.675Z,100375.00
2018-06-29T01:32:05.965Z,100377.00
2018-06-29T01:37:09.261Z,100380.00
2018-06-29T01:42:12.234Z,100374.00
2018-06-29T01:47:15.472Z,100364.00
2018-06-29T01:52:18.492Z,100368.00
2018-06-29T01:57:21.472Z,100365.00
2018-06-29T02:02:24.501Z,100363.00
2018-06-29T02:07:27.548Z,100364.00
2018-06-29T02:12:30.553Z,100355.00
2018-06-29T02:17:33.628Z,100349.00
2018-06-29T02:22:36.599Z,100344.00
2018-06-29T02:27:39.841Z,100340.00
2018-06-29T02:32:42.937Z,100335.00
2018-06-29T02:37:45.967Z,100337.00
2018-06-29T02:42:48.929Z,100313.00
2018-06-29T02:47:51.904Z,100322.00
2018-06-29T02:52:54.900Z,100331.00
2018-06-29T02:57:57.876Z,100324.00
2018-06-29T03:03:00.869Z,100320.00
2018-06-29T03:08:05.301Z,100319.00
2018-06-29T03:13:08.316Z,100316.00
2018-06-29T03:18:11.354Z,100324.00
2018-06-29T03:23:14.320Z,100318.00
2018-06-29T03:28:17.594Z,100310.00
2018-06-29T03:33:20.605Z,100315.00
2018-06-29T03:38:23.655Z,100311.00
2018-06-29T03:43:26.693Z,100307.00
2018-06-29T03:48:30.026Z,100313.00
2018-06-29T03:53:33.094Z,100312.00
2018-06-29T03:58:36.098Z,100318.00
2018-06-29T04:03:39.080Z,100319.00
2018-06-29T04:08:42.061Z,100318.00
2018-06-29T04:13:45.013Z,100319.00
2018-06-29T04:18:48.051Z,100320.00
2018-06-29T04:23:51.069Z,100330.00
2018-06-29T04:28:54.143Z,100319.00
2018-06-29T04:33:57.160Z,100324.00
2018-06-29T04:39:00.264Z,100324.00
2018-06-29T04:44:03.293Z,100321.00
2018-06-29T04:49:06.282Z,100313.00
2018-06-29T04:54:09.300Z,100320.00
2018-06-29T04:59:12.552Z,100316.00
2018-06-29T05:04:15.779Z,100319.00
2018-06-29T05:09:18.848Z,100312.00
2018-06-29T05:14:21.752Z,100316.00
2018-06-29T05:19:24.892Z,100315.00
2018-06-29T05:24:27.844Z,100324.00
2018-06-29T05:29:30.892Z,100335.00
2018-06-29T05:34:33.889Z,100335.00
2018-06-29T05:39:36.835Z,100336.00
2018-06-29T05:44:39.924Z,100326.00
2018-06-29T05:49:43.024Z,100339.00
2018-06-29T05:54:46.123Z,100336.00
2018-06-29T05:59:49.170Z,100318.00
2018-06-29T06:04:53.089Z,100314.00
2018-06-29T06:09:56.284Z,100319.00
2018-06-29T06:14:59.260Z,100319.00
2018-06-29T06:20:11.802Z,100332.00
2018-06-29T06:25:14.915Z,100321.00
2018-06-29T06:30:18.140Z,100323.00
2018-06-29T06:35:21.343Z,100323.00
2018-06-29T06:40:24.664Z,100332.00
2018-06-29T06:45:27.688Z,100337.00
2018-06-29T06:50:30.808Z,100321.00
2018-06-29T06:55:33.790Z,100341.00
2018-06-29T07:00:36.988Z,100337.00
2018-06-29T07:05:40.181Z,100344.00
2018-06-29T07:10:43.487Z,100333.00
2018-06-29T07:15:46.809Z,100341.00
2018-06-29T07:20:50.028Z,100351.00
2018-06-29T07:25:53.106Z,100335.00
2018-06-29T07:30:56.418Z,100341.00
2018-06-29T07:35:59.464Z,100350.00
2018-06-29T07:41:02.648Z,100343.00
2018-06-29T07:46:06.244Z,100352.00
2018-06-29T07:51:09.311Z,100348.00
2018-06-29T07:56:12.483Z,100348.00
2018-06-29T08:01:15.683Z,100354.00
2018-06-29T08:06:18.583Z,100348.00
2018-06-29T08:11:21.816Z,100361.00
2018-06-29T08:16:25.009Z,100369.00
2018-06-29T08:21:28.051Z,100357.00
2018-06-29T08:26:31.058Z,100357.00
2018-06-29T08:31:34.152Z,100356.00
2018-06-29T08:36:37.314Z,100373.00
2018-06-29T08:41:40.484Z,100365.00
2018-06-29T08:46:43.761Z,100378.00
2018-06-29T08:51:46.806Z,100380.00
2018-06-29T08:56:49.868Z,100370.00
2018-06-29T09:01:52.953Z,100355.00
2018-06-29T09:06:56.368Z,100359.00
2018-06-29T09:11:59.571Z,100347.00
2018-06-29T09:17:02.651Z,100337.00
2018-06-29T09:22:06.115Z,100325.00
2018-06-29T09:27:09.395Z,100333.00
2018-06-29T09:32:12.331Z,100335.00
2018-06-29T09:37:15.500Z,100321.00
2018-06-29T09:42:18.850Z,100301.00
2018-06-29T09:47:21.964Z,100313.00
2018-06-29T09:52:25.121Z,100303.00
2018-06-29T09:57:28.361Z,100309.00
2018-06-29T10:02:31.691Z,100301.00
2018-06-29T10:07:34.439Z,100299.00
2018-06-29T10:12:37.603Z,100298.00
2018-06-29T10:17:40.787Z,100297.00
2018-06-29T10:22:43.945Z,100292.00
2018-06-29T10:27:47.207Z,100295.00
2018-06-29T10:32:50.504Z,100286.00
2018-06-29T10:37:53.866Z,100301.00
2018-06-29T10:42:57.129Z,100294.00
2018-06-29T10:48:00.216Z,100290.00
2018-06-29T10:53:03.463Z,100304.00
2018-06-29T10:58:06.748Z,100281.00
2018-06-29T11:03:09.872Z,100288.00
2018-06-29T11:08:13.188Z,100284.00
2018-06-29T11:13:16.396Z,100278.00
2018-06-29T11:18:19.590Z,100283.00
2018-06-29T11:23:22.629Z,100278.00
2018-06-29T11:28:25.757Z,100268.00
2018-06-29T11:33:28.852Z,100278.00
2018-06-29T11:38:31.902Z,100269.00
2018-06-29T11:43:35.231Z,100259.00
2018-06-29T11:48:38.439Z,100253.00
2018-06-29T11:53:41.700Z,100237.00
2018-06-29T11:58:44.866Z,100244.00
2018-06-29T12:03:48.169Z,100238.00
2018-06-29T12:08:51.227Z,100236.00
2018-06-29T12:13:54.890Z,100232.00
2018-06-29T12:18:58.026Z,100231.00
2018-06-29T12:24:01.213Z,100216.00
2018-06-29T12:29:04.622Z,100216.00
2018-06-29T12:34:07.933Z,100213.00
2018-06-29T12:39:11.181Z,100216.00
2018-06-29T12:44:14.356Z,100222.00
2018-06-29T12:49:17.550Z,100209.00
2018-06-29T12:54:20.855Z,100194.00
2018-06-29T12:59:23.909Z,100200.00
2018-06-29T13:04:26.884Z,100196.00
2018-06-29T13:09:30.041Z,100203.00
2018-06-29T13:14:33.393Z,100178.00
2018-06-29T13:19:36.564Z,100172.00
2018-06-29T13:24:39.627Z,100168.00
2018-06-29T13:29:42.781Z,100168.00
2018-06-29T13:34:46.013Z,100162.00
2018-06-29T13:39:49.197Z,100157.00
2018-06-29T13:44:52.433Z,100160.00
2018-06-29T13:49:55.377Z,100147.00
2018-06-29T13:54:58.582Z,100158.00
2018-06-29T14:00:01.642Z,100148.00
2018-06-29T14:05:04.956Z,100144.00
2018-06-29T14:10:08.269Z,100146.00
2018-06-29T14:15:11.331Z,100153.00
2018-06-29T14:20:15.207Z,100132.00
2018-06-29T14:25:18.517Z,100130.00
2018-06-29T14:30:21.732Z,100129.00
2018-06-29T14:35:24.782Z,100126.00
2018-06-29T14:40:27.840Z,100132.00
2018-06-29T14:45:31.044Z,100122.00
2018-06-29T14:50:34.149Z,100115.00
2018-06-29T14:55:37.992Z,100112.00
2018-06-29T15:00:41.007Z,100106.00
2018-06-29T15:05:44.029Z,100100.00
2018-06-29T15:10:47.091Z,100092.00
2018-06-29T15:15:50.449Z,100091.00
2018-06-29T15:20:53.572Z,100083.00
2018-06-29T15:25:56.804Z,100070.00
2018-06-29T15:30:59.781Z,100080.00
2018-06-29T15:36:02.958Z,100075.00
2018-06-29T15:41:06.279Z,100068.00
2018-06-29T15:46:09.515Z,100077.00
2018-06-29T15:51:12.813Z,100062.00
2018-06-29T15:56:15.940Z,100065.00
2018-06-29T16:01:19.180Z,100061.00
2018-06-29T16:06:22.258Z,100063.00
2018-06-29T16:11:25.454Z,100054.00
2018-06-29T16:16:28.704Z,100057.00
2018-06-29T16:21:31.924Z,100055.00
2018-06-29T16:26:35.001Z,100050.00
2018-06-29T16:31:38.021Z,100054.00
2018-06-29T16:36:41.081Z,100050.00
2018-06-29T16:41:44.115Z,100049.00
2018-06-29T16:46:47.643Z,100051.00
2018-06-29T16:51:50.871Z,100053.00
2018-06-29T16:56:54.167Z,100048.00
2018-06-29T17:01:57.459Z,100038.00
2018-06-29T17:07:00.485Z,100039.00
2018-06-29T17:12:03.680Z,100043.00
2018-06-29T17:17:06.753Z,100048.00
2018-06-29T17:22:09.900Z,100047.00
2018-06-29T17:27:12.987Z,100035.00
2018-06-29T17:32:16.156Z,100038.00
2018-06-29T17:37:19.465Z,100038.00
2018-06-29T17:42:22.577Z,100035.00
2018-06-29T17:47:25.699Z,100028.00
2018-06-29T17:52:28.699Z,100027.00
2018-06-29T17:57:31.765Z,100028.00
2018-06-29T18:02:34.838Z,100020.00
2018-06-29T18:07:37.812Z,100022.00
2018-06-29T18:12:40.816Z,100026.00
2018-06-29T18:17:43.868Z,100029.00
2018-06-29T18:22:46.883Z,100028.00
2018-06-29T18:27:50.183Z,100026.00
2018-06-29T18:32:53.273Z,100029.00
2018-06-29T18:37:56.280Z,100022.00
2018-06-29T18:42:59.595Z,100022.00
2018-06-29T18:48:02.889Z,100022.00
2018-06-29T18:53:06.042Z,100027.00
2018-06-29T18:58:09.345Z,100022.00
2018-06-29T19:03:12.743Z,100030.00
2018-06-29T19:08:15.905Z,100027.00
2018-06-29T19:13:19.263Z,100031.00
2018-06-29T19:18:22.545Z,100023.00
2018-06-29T19:23:25.888Z,100028.00
2018-06-29T19:28:28.904Z,100028.00
2018-06-29T19:33:32.063Z,100027.00
2018-06-29T19:38:35.218Z,100033.00
2018-06-29T19:43:38.296Z,100037.00
2018-06-29T19:48:41.512Z,100036.00
2018-06-29T19:53:44.723Z,100034.00
2018-06-29T19:58:47.846Z,100035.00
2018-06-29T20:03:51.340Z,100028.00
2018-06-29T20:08:54.455Z,100023.00
2018-06-29T20:13:57.436Z,100032.00
2018-06-29T20:19:00.526Z,100031.00
2018-06-29T20:24:04.100Z,100025.00
2018-06-29T20:29:07.380Z,100028.00
2018-06-29T20:34:10.403Z,100026.00
2018-06-29T20:39:13.473Z,100027.00
2018-06-29T20:44:16.544Z,100028.00
2018-06-29T20:49:19.620Z,100034.00
2018-06-29T20:54:22.919Z,100032.00
2018-06-29T20:59:26.180Z,100027.00
2018-06-29T21:04:29.547Z,100030.00
2018-06-29T21:09:32.710Z,100025.00
2018-06-29T21:14:35.797Z,100032.00
2018-06-29T21:19:39.158Z,100031.00
2018-06-29T21:24:42.198Z,100027.00
2018-06-29T21:29:45.312Z,100030.00
2018-06-29T21:34:48.319Z,100036.00
2018-06-29T21:39:51.685Z,100038.00
2018-06-29T21:44:54.905Z,100040.00
2018-06-29T21:49:58.237Z,100038.00
2018-06-29T21:55:01.413Z,100041.00
2018-06-29T22:00:09.148Z,100041.00
2018-06-29T22:05:12.278Z,100033.00
2018-06-29T22:10:15.560Z,100038.00
2018-06-29T22:15:22.921Z,100036.00
2018-06-29T22:20:25.976Z,100037.00
2018-06-29T22:25:29.181Z,100037.00
2018-06-29T22:30:32.480Z,100040.00
2018-06-29T22:35:35.687Z,100038.00
2018-06-29T22:40:38.638Z,100033.00
2018-06-29T22:45:41.735Z,100048.00
2018-06-29T22:50:44.690Z,100042.00
2018-06-29T22:55:47.652Z,100036.00
2018-06-29T23:00:50.696Z,100033.00
2018-06-29T23:05:53.764Z,100038.00
2018-06-29T23:10:56.808Z,100038.00
2018-06-29T23:15:59.854Z,100037.00
2018-06-29T23:21:03.152Z,100027.00
2018-06-29T23:26:06.331Z,100025.00
2018-06-29T23:31:09.545Z,100025.00
2018-06-29T23:36:12.598Z,100025.00
2018-06-29T23:41:15.603Z,100027.00
2018-06-29T23:46:18.652Z,100029.00
2018-06-29T23:51:21.750Z,100019.00
2018-06-29T23:56:24.812Z,100024.00
